Terminal Aerodrome Forecast
Issued by NWS Binghamton, NY

Home | Current Version | Previous Version | Text Only | Print | Product List | Glossary On
Versions: 1 2 3 4 5 6 7 8 9 10 11 12 13 14 15 16
000
FTUS41 KBGM 260530
TAFBGM
TAF
KBGM 260530Z 2606/2706 21011KT P6SM BKN200
     FM260800 22011KT P6SM BKN080 BKN200
     FM261400 23011KT P6SM -SHRA BKN050 OVC100 PROB30 2620/2624 5SM
      -TSRA BR BKN050CB
     FM270100 19007KT P6SM BKN050=

USA.gov is the U.S. government's official web portal to all federal, state and local government web resources and services.